sensor_id;sensor_type;location;lat;lon;timestamp;pressure;altitude;pressure_sealevel;temperature;humidity
65897;BME280;52677;50.898;10.854;2024-01-16T00:01:20;97261.75;;;-0.82;100.00
65897;BME280;52677;50.898;10.854;2024-01-16T00:03:21;97261.16;;;-0.88;100.00
65897;BME280;52677;50.898;10.854;2024-01-16T00:05:21;97265.34;;;-0.90;100.00
65897;BME280;52677;50.898;10.854;2024-01-16T00:07:21;97264.06;;;-0.93;100.00
65897;BME280;52677;50.898;10.854;2024-01-16T00:09:22;97266.59;;;-0.88;100.00
65897;BME280;52677;50.898;10.854;2024-01-16T00:11:23;97280.75;;;-0.82;100.00
65897;BME280;52677;50.898;10.854;2024-01-16T00:13:23;97271.00;;;-0.83;100.00
65897;BME280;52677;50.898;10.854;2024-01-16T00:15:24;97275.63;;;-0.83;100.00
65897;BME280;52677;50.898;10.854;2024-01-16T00:17:24;97272.41;;;-0.77;100.00
65897;BME280;52677;50.898;10.854;2024-01-16T00:19:24;97276.91;;;-0.81;100.00
65897;BME280;52677;50.898;10.854;2024-01-16T00:21:25;97286.44;;;-0.75;100.00
65897;BME280;52677;50.898;10.854;2024-01-16T00:23:25;97289.81;;;-0.78;100.00
65897;BME280;52677;50.898;10.854;2024-01-16T00:25:26;97278.63;;;-0.76;100.00
65897;BME280;52677;50.898;10.854;2024-01-16T00:27:26;97284.19;;;-0.73;100.00
65897;BME280;52677;50.898;10.854;2024-01-16T00:29:27;97294.38;;;-0.70;100.00
65897;BME280;52677;50.898;10.854;2024-01-16T00:31:28;97288.16;;;-0.70;100.00
65897;BME280;52677;50.898;10.854;2024-01-16T00:33:28;97286.91;;;-0.73;100.00
65897;BME280;52677;50.898;10.854;2024-01-16T00:35:28;97285.78;;;-0.72;100.00
65897;BME280;52677;50.898;10.854;2024-01-16T00:37:29;97289.28;;;-0.71;100.00
65897;BME280;52677;50.898;10.854;2024-01-16T00:39:29;97297.25;;;-0.66;100.00
65897;BME280;52677;50.898;10.854;2024-01-16T00:41:29;97298.03;;;-0.66;100.00
65897;BME280;52677;50.898;10.854;2024-01-16T00:43:30;97304.25;;;-0.65;100.00
65897;BME280;52677;50.898;10.854;2024-01-16T00:45:30;97305.50;;;-0.63;100.00
65897;BME280;52677;50.898;10.854;2024-01-16T00:47:30;97301.66;;;-0.62;100.00
65897;BME280;52677;50.898;10.854;2024-01-16T00:49:30;97301.66;;;-0.62;100.00
65897;BME280;52677;50.898;10.854;2024-01-16T00:51:31;97296.13;;;-0.65;100.00
65897;BME280;52677;50.898;10.854;2024-01-16T00:53:31;97296.22;;;-0.62;100.00
65897;BME280;52677;50.898;10.854;2024-01-16T00:55:31;97308.34;;;-0.59;100.00
65897;BME280;52677;50.898;10.854;2024-01-16T00:57:32;97306.09;;;-0.57;100.00
65897;BME280;52677;50.898;10.854;2024-01-16T00:59:32;97318.41;;;-0.60;100.00
65897;BME280;52677;50.898;10.854;2024-01-16T01:01:32;97310.25;;;-0.60;100.00
65897;BME280;52677;50.898;10.854;2024-01-16T01:03:33;97316.97;;;-0.57;100.00
65897;BME280;52677;50.898;10.854;2024-01-16T01:05:33;97316.38;;;-0.63;100.00
65897;BME280;52677;50.898;10.854;2024-01-16T01:07:33;97312.53;;;-0.62;100.00
65897;BME280;52677;50.898;10.854;2024-01-16T01:09:34;97323.06;;;-0.60;100.00
65897;BME280;52677;50.898;10.854;2024-01-16T01:11:34;97323.59;;;-0.67;100.00
65897;BME280;52677;50.898;10.854;2024-01-16T01:13:34;97314.66;;;-0.67;100.00
65897;BME280;52677;50.898;10.854;2024-01-16T01:15:35;97325.31;;;-0.62;100.00
65897;BME280;52677;50.898;10.854;2024-01-16T01:17:35;97322.16;;;-0.64;100.00
65897;BME280;52677;50.898;10.854;2024-01-16T01:19:35;97320.56;;;-0.65;100.00
65897;BME280;52677;50.898;10.854;2024-01-16T01:21:36;97329.16;;;-0.63;100.00
65897;BME280;52677;50.898;10.854;2024-01-16T01:23:36;97341.16;;;-0.64;100.00
65897;BME280;52677;50.898;10.854;2024-01-16T01:25:36;97331.81;;;-0.54;100.00
65897;BME280;52677;50.898;10.854;2024-01-16T01:27:37;97345.25;;;-0.58;100.00
65897;BME280;52677;50.898;10.854;2024-01-16T01:29:38;97343.09;;;-0.65;100.00
65897;BME280;52677;50.898;10.854;2024-01-16T01:31:38;97343.88;;;-0.64;100.00
65897;BME280;52677;50.898;10.854;2024-01-16T01:33:41;97350.91;;;-0.63;100.00
65897;BME280;52677;50.898;10.854;2024-01-16T01:35:42;97363.72;;;-0.51;100.00
65897;BME280;52677;50.898;10.854;2024-01-16T01:37:42;97346.72;;;-0.61;100.00
65897;BME280;52677;50.898;10.854;2024-01-16T01:39:43;97356.00;;;-0.62;100.00
65897;BME280;52677;50.898;10.854;2024-01-16T01:41:43;97362.91;;;-0.64;100.00
65897;BME280;52677;50.898;10.854;2024-01-16T01:43:43;97357.31;;;-0.68;100.00
65897;BME280;52677;50.898;10.854;2024-01-16T01:45:44;97365.09;;;-0.58;100.00
65897;BME280;52677;50.898;10.854;2024-01-16T01:47:44;97374.81;;;-0.57;100.00
65897;BME280;52677;50.898;10.854;2024-01-16T01:49:45;97370.91;;;-0.68;100.00
65897;BME280;52677;50.898;10.854;2024-01-16T01:51:46;97368.78;;;-0.62;100.00
65897;BME280;52677;50.898;10.854;2024-01-16T01:53:48;97364.94;;;-0.61;100.00
65897;BME280;52677;50.898;10.854;2024-01-16T01:55:50;97381.69;;;-0.59;100.00
65897;BME280;52677;50.898;10.854;2024-01-16T01:57:50;97376.47;;;-0.64;100.00
65897;BME280;52677;50.898;10.854;2024-01-16T01:59:51;97383.34;;;-0.67;100.00
65897;BME280;52677;50.898;10.854;2024-01-16T02:01:52;97385.81;;;-0.74;100.00
65897;BME280;52677;50.898;10.854;2024-01-16T02:03:55;97383.84;;;-0.65;100.00
65897;BME280;52677;50.898;10.854;2024-01-16T02:05:55;97378.59;;;-0.70;100.00
65897;BME280;52677;50.898;10.854;2024-01-16T02:07:56;97384.97;;;-0.66;100.00
65897;BME280;52677;50.898;10.854;2024-01-16T02:09:56;97391.03;;;-0.69;100.00
65897;BME280;52677;50.898;10.854;2024-01-16T02:11:57;97397.78;;;-0.75;100.00
65897;BME280;52677;50.898;10.854;2024-01-16T02:13:57;97399.13;;;-0.81;100.00
65897;BME280;52677;50.898;10.854;2024-01-16T02:15:58;97394.22;;;-0.88;100.00
65897;BME280;52677;50.898;10.854;2024-01-16T02:17:59;97395.19;;;-0.92;100.00
65897;BME280;52677;50.898;10.854;2024-01-16T02:19:59;97401.22;;;-0.87;100.00
65897;BME280;52677;50.898;10.854;2024-01-16T02:22:00;97408.53;;;-0.78;100.00
65897;BME280;52677;50.898;10.854;2024-01-16T02:24:03;97417.94;;;-0.76;100.00
65897;BME280;52677;50.898;10.854;2024-01-16T02:26:05;97419.06;;;-0.77;100.00
65897;BME280;52677;50.898;10.854;2024-01-16T02:28:05;97428.06;;;-0.85;100.00
65897;BME280;52677;50.898;10.854;2024-01-16T02:30:06;97425.25;;;-0.97;100.00
65897;BME280;52677;50.898;10.854;2024-01-16T02:32:06;97425.53;;;-1.20;100.00
65897;BME280;52677;50.898;10.854;2024-01-16T02:34:07;97422.34;;;-1.22;100.00
65897;BME280;52677;50.898;10.854;2024-01-16T02:36:07;97424.66;;;-1.32;100.00
65897;BME280;52677;50.898;10.854;2024-01-16T02:38:08;97422.06;;;-1.29;100.00
65897;BME280;52677;50.898;10.854;2024-01-16T02:40:08;97422.19;;;-1.25;100.00
65897;BME280;52677;50.898;10.854;2024-01-16T02:42:09;97421.06;;;-1.24;100.00
65897;BME280;52677;50.898;10.854;2024-01-16T02:44:09;97400.13;;;-1.15;100.00
65897;BME280;52677;50.898;10.854;2024-01-16T02:46:10;97416.22;;;-1.10;100.00
65897;BME280;52677;50.898;10.854;2024-01-16T02:48:10;97423.53;;;-1.02;100.00
65897;BME280;52677;50.898;10.854;2024-01-16T02:50:11;97420.00;;;-1.02;100.00
65897;BME280;52677;50.898;10.854;2024-01-16T02:52:12;97417.16;;;-1.06;100.00
65897;BME280;52677;50.898;10.854;2024-01-16T02:54:12;97421.59;;;-1.01;100.00
65897;BME280;52677;50.898;10.854;2024-01-16T02:56:12;97414.63;;;-1.11;100.00
65897;BME280;52677;50.898;10.854;2024-01-16T02:58:13;97420.06;;;-1.11;100.00
65897;BME280;52677;50.898;10.854;2024-01-16T03:00:13;97422.94;;;-1.16;100.00
65897;BME280;52677;50.898;10.854;2024-01-16T03:02:14;97428.13;;;-1.23;100.00
65897;BME280;52677;50.898;10.854;2024-01-16T03:04:14;97427.63;;;-1.25;100.00
65897;BME280;52677;50.898;10.854;2024-01-16T03:06:24;97430.56;;;-1.39;100.00
65897;BME280;52677;50.898;10.854;2024-01-16T03:08:24;97423.59;;;-1.49;100.00
65897;BME280;52677;50.898;10.854;2024-01-16T03:10:25;97422.16;;;-1.46;100.00
65897;BME280;52677;50.898;10.854;2024-01-16T03:12:25;97432.19;;;-1.47;100.00
65897;BME280;52677;50.898;10.854;2024-01-16T03:14:26;97431.09;;;-1.54;100.00
65897;BME280;52677;50.898;10.854;2024-01-16T03:16:27;97441.31;;;-1.51;100.00
65897;BME280;52677;50.898;10.854;2024-01-16T03:18:27;97442.88;;;-1.50;100.00
65897;BME280;52677;50.898;10.854;2024-01-16T03:20:28;97442.75;;;-1.54;100.00
65897;BME280;52677;50.898;10.854;2024-01-16T03:22:28;97439.72;;;-1.52;100.00
65897;BME280;52677;50.898;10.854;2024-01-16T03:24:29;97446.25;;;-1.53;100.00
65897;BME280;52677;50.898;10.854;2024-01-16T03:26:29;97441.75;;;-1.40;100.00
65897;BME280;52677;50.898;10.854;2024-01-16T03:28:29;97443.84;;;-1.46;100.00
65897;BME280;52677;50.898;10.854;2024-01-16T03:30:30;97463.28;;;-1.35;100.00
65897;BME280;52677;50.898;10.854;2024-01-16T03:32:30;97468.38;;;-1.34;100.00
65897;BME280;52677;50.898;10.854;2024-01-16T03:34:30;97465.03;;;-1.31;100.00
65897;BME280;52677;50.898;10.854;2024-01-16T03:36:31;97460.81;;;-1.20;100.00
65897;BME280;52677;50.898;10.854;2024-01-16T03:38:32;97466.56;;;-1.21;100.00
65897;BME280;52677;50.898;10.854;2024-01-16T03:40:32;97479.34;;;-1.22;100.00
65897;BME280;52677;50.898;10.854;2024-01-16T03:42:34;97471.38;;;-1.27;100.00
65897;BME280;52677;50.898;10.854;2024-01-16T03:44:41;97477.59;;;-1.26;100.00
65897;BME280;52677;50.898;10.854;2024-01-16T03:46:41;97478.41;;;-1.26;100.00
65897;BME280;52677;50.898;10.854;2024-01-16T03:48:41;97496.63;;;-1.35;100.00
65897;BME280;52677;50.898;10.854;2024-01-16T03:50:42;97480.69;;;-1.36;100.00
65897;BME280;52677;50.898;10.854;2024-01-16T03:52:44;97474.78;;;-1.38;100.00
65897;BME280;52677;50.898;10.854;2024-01-16T03:54:44;97478.91;;;-1.41;100.00
65897;BME280;52677;50.898;10.854;2024-01-16T03:56:44;97481.94;;;-1.34;100.00
65897;BME280;52677;50.898;10.854;2024-01-16T03:58:44;97484.19;;;-1.36;100.00
65897;BME280;52677;50.898;10.854;2024-01-16T04:00:45;97490.72;;;-1.28;100.00
65897;BME280;52677;50.898;10.854;2024-01-16T04:02:46;97481.78;;;-1.29;100.00
65897;BME280;52677;50.898;10.854;2024-01-16T04:04:46;97495.38;;;-1.37;100.00
65897;BME280;52677;50.898;10.854;2024-01-16T04:06:46;97491.06;;;-1.38;100.00
65897;BME280;52677;50.898;10.854;2024-01-16T04:08:47;97489.78;;;-1.41;100.00
65897;BME280;52677;50.898;10.854;2024-01-16T04:10:47;97492.50;;;-1.50;100.00
65897;BME280;52677;50.898;10.854;2024-01-16T04:12:47;97490.78;;;-1.54;100.00
65897;BME280;52677;50.898;10.854;2024-01-16T04:14:48;97488.41;;;-1.56;100.00
65897;BME280;52677;50.898;10.854;2024-01-16T04:16:48;97487.59;;;-1.56;100.00
65897;BME280;52677;50.898;10.854;2024-01-16T04:18:48;97493.66;;;-1.59;100.00
65897;BME280;52677;50.898;10.854;2024-01-16T04:20:49;97488.91;;;-1.71;100.00
65897;BME280;52677;50.898;10.854;2024-01-16T04:22:50;97501.50;;;-1.75;100.00
65897;BME280;52677;50.898;10.854;2024-01-16T04:24:50;97495.47;;;-1.81;100.00
65897;BME280;52677;50.898;10.854;2024-01-16T04:26:50;97498.97;;;-1.80;100.00
65897;BME280;52677;50.898;10.854;2024-01-16T04:28:51;97499.00;;;-1.89;100.00
65897;BME280;52677;50.898;10.854;2024-01-16T04:30:51;97499.00;;;-1.98;100.00
65897;BME280;52677;50.898;10.854;2024-01-16T04:32:51;97492.94;;;-2.03;100.00
65897;BME280;52677;50.898;10.854;2024-01-16T04:34:52;97508.72;;;-2.05;100.00
65897;BME280;52677;50.898;10.854;2024-01-16T04:36:52;97511.44;;;-2.05;100.00
65897;BME280;52677;50.898;10.854;2024-01-16T04:38:52;97507.28;;;-2.03;100.00
65897;BME280;52677;50.898;10.854;2024-01-16T04:40:53;97508.72;;;-1.96;100.00
65897;BME280;52677;50.898;10.854;2024-01-16T04:42:53;97510.63;;;-1.97;100.00
65897;BME280;52677;50.898;10.854;2024-01-16T04:44:53;97496.75;;;-1.95;100.00
65897;BME280;52677;50.898;10.854;2024-01-16T04:46:54;97503.44;;;-2.02;100.00
65897;BME280;52677;50.898;10.854;2024-01-16T04:48:55;97507.94;;;-2.06;100.00
65897;BME280;52677;50.898;10.854;2024-01-16T04:50:55;97511.44;;;-2.05;100.00
65897;BME280;52677;50.898;10.854;2024-01-16T04:52:55;97517.97;;;-2.06;100.00
65897;BME280;52677;50.898;10.854;2024-01-16T04:54:56;97524.34;;;-2.02;100.00
65897;BME280;52677;50.898;10.854;2024-01-16T04:56:56;97514.63;;;-2.03;100.00
65897;BME280;52677;50.898;10.854;2024-01-16T04:58:57;97524.34;;;-2.02;100.00
65897;BME280;52677;50.898;10.854;2024-01-16T05:00:57;97524.97;;;-2.05;100.00
65897;BME280;52677;50.898;10.854;2024-01-16T05:02:58;97518.44;;;-2.13;100.00
65897;BME280;52677;50.898;10.854;2024-01-16T05:04:59;97524.47;;;-2.07;100.00
65897;BME280;52677;50.898;10.854;2024-01-16T05:06:59;97529.28;;;-2.13;100.00
65897;BME280;52677;50.898;10.854;2024-01-16T05:08:59;97527.69;;;-2.14;100.00
65897;BME280;52677;50.898;10.854;2024-01-16T05:10:59;97527.03;;;-2.19;100.00
65897;BME280;52677;50.898;10.854;2024-01-16T05:13:00;97527.03;;;-2.19;100.00
65897;BME280;52677;50.898;10.854;2024-01-16T05:15:00;97517.16;;;-2.24;100.00
65897;BME280;52677;50.898;10.854;2024-01-16T05:17:00;97521.28;;;-2.27;100.00
65897;BME280;52677;50.898;10.854;2024-01-16T05:19:01;97518.44;;;-2.21;100.00
65897;BME280;52677;50.898;10.854;2024-01-16T05:21:01;97520.19;;;-2.26;100.00
65897;BME280;52677;50.898;10.854;2024-01-16T05:23:02;97520.34;;;-2.22;100.00
65897;BME280;52677;50.898;10.854;2024-01-16T05:25:03;97514.94;;;-2.31;100.00
65897;BME280;52677;50.898;10.854;2024-01-16T05:27:03;97528.16;;;-2.38;100.00
65897;BME280;52677;50.898;10.854;2024-01-16T05:29:04;97524.19;;;-2.32;100.00
65897;BME280;52677;50.898;10.854;2024-01-16T05:31:05;97532.44;;;-2.37;100.00
65897;BME280;52677;50.898;10.854;2024-01-16T05:33:05;97530.53;;;-2.36;100.00
65897;BME280;52677;50.898;10.854;2024-01-16T05:35:07;97516.19;;;-2.45;100.00
65897;BME280;52677;50.898;10.854;2024-01-16T05:37:09;97525.44;;;-2.46;100.00
65897;BME280;52677;50.898;10.854;2024-01-16T05:39:10;97520.63;;;-2.49;100.00
65897;BME280;52677;50.898;10.854;2024-01-16T05:41:11;97532.56;;;-2.50;100.00
65897;BME280;52677;50.898;10.854;2024-01-16T05:43:11;97525.88;;;-2.53;100.00
65897;BME280;52677;50.898;10.854;2024-01-16T05:45:12;97525.25;;;-2.50;100.00
65897;BME280;52677;50.898;10.854;2024-01-16T05:47:13;97511.88;;;-2.46;100.00
65897;BME280;52677;50.898;10.854;2024-01-16T05:49:14;97515.38;;;-2.46;100.00
65897;BME280;52677;50.898;10.854;2024-01-16T05:51:14;97516.97;;;-2.45;100.00
65897;BME280;52677;50.898;10.854;2024-01-16T05:53:14;97513.63;;;-2.50;100.00
65897;BME280;52677;50.898;10.854;2024-01-16T05:55:15;97523.34;;;-2.49;100.00
65897;BME280;52677;50.898;10.854;2024-01-16T05:57:15;97523.19;;;-2.53;100.00
65897;BME280;52677;50.898;10.854;2024-01-16T05:59:16;97516.50;;;-2.56;100.00
65897;BME280;52677;50.898;10.854;2024-01-16T06:01:16;97510.28;;;-2.56;100.00
65897;BME280;52677;50.898;10.854;2024-01-16T06:03:16;97511.25;;;-2.43;100.00
65897;BME280;52677;50.898;10.854;2024-01-16T06:05:17;97510.28;;;-2.47;100.00
65897;BME280;52677;50.898;10.854;2024-01-16T06:07:17;97511.09;;;-2.47;100.00
65897;BME280;52677;50.898;10.854;2024-01-16T06:09:17;97511.09;;;-2.47;100.00
65897;BME280;52677;50.898;10.854;2024-01-16T06:11:18;97521.28;;;-2.44;100.00
65897;BME280;52677;50.898;10.854;2024-01-16T06:13:21;97522.22;;;-2.48;100.00
65897;BME280;52677;50.898;10.854;2024-01-16T06:15:21;97516.84;;;-2.40;100.00
65897;BME280;52677;50.898;10.854;2024-01-16T06:17:22;97525.56;;;-2.43;100.00
65897;BME280;52677;50.898;10.854;2024-01-16T06:19:22;97524.31;;;-2.45;100.00
65897;BME280;52677;50.898;10.854;2024-01-16T06:21:22;97519.81;;;-2.50;100.00
65897;BME280;52677;50.898;10.854;2024-01-16T06:23:22;97524.13;;;-2.49;100.00
65897;BME280;52677;50.898;10.854;2024-01-16T06:25:23;97533.22;;;-2.53;100.00
65897;BME280;52677;50.898;10.854;2024-01-16T06:27:23;97522.69;;;-2.55;100.00
65897;BME280;52677;50.898;10.854;2024-01-16T06:29:23;97530.66;;;-2.59;100.00
65897;BME280;52677;50.898;10.854;2024-01-16T06:31:24;97530.84;;;-2.55;100.00
65897;BME280;52677;50.898;10.854;2024-01-16T06:33:26;97527.31;;;-2.56;100.00
65897;BME280;52677;50.898;10.854;2024-01-16T06:35:26;97535.28;;;-2.50;100.00
65897;BME280;52677;50.898;10.854;2024-01-16T06:37:27;97525.09;;;-2.53;100.00
65897;BME280;52677;50.898;10.854;2024-01-16T06:39:27;97529.72;;;-2.54;100.00
65897;BME280;52677;50.898;10.854;2024-01-16T06:41:27;97521.91;;;-2.56;100.00
65897;BME280;52677;50.898;10.854;2024-01-16T06:43:28;97523.81;;;-2.56;100.00
65897;BME280;52677;50.898;10.854;2024-01-16T06:45:28;97523.00;;;-2.57;100.00
65897;BME280;52677;50.898;10.854;2024-01-16T06:47:28;97528.13;;;-2.46;100.00
65897;BME280;52677;50.898;10.854;2024-01-16T06:49:29;97522.06;;;-2.52;100.00
65897;BME280;52677;50.898;10.854;2024-01-16T06:51:29;97529.84;;;-2.59;100.00
65897;BME280;52677;50.898;10.854;2024-01-16T06:53:29;97530.66;;;-2.59;100.00
65897;BME280;52677;50.898;10.854;2024-01-16T06:55:30;97529.22;;;-2.65;100.00
65897;BME280;52677;50.898;10.854;2024-01-16T06:57:30;97538.13;;;-2.64;100.00
65897;BME280;52677;50.898;10.854;2024-01-16T06:59:30;97526.31;;;-2.68;100.00
65897;BME280;52677;50.898;10.854;2024-01-16T07:01:30;97540.97;;;-2.69;100.00
65897;BME280;52677;50.898;10.854;2024-01-16T07:03:31;97546.25;;;-2.73;100.00
65897;BME280;52677;50.898;10.854;2024-01-16T07:05:31;97546.53;;;-2.74;100.00
65897;BME280;52677;50.898;10.854;2024-01-16T07:07:31;97542.91;;;-2.70;100.00
65897;BME280;52677;50.898;10.854;2024-01-16T07:09:32;97547.50;;;-2.70;100.00
65897;BME280;52677;50.898;10.854;2024-01-16T07:11:32;97554.03;;;-2.71;100.00
65897;BME280;52677;50.898;10.854;2024-01-16T07:13:32;97561.22;;;-2.67;100.00
65897;BME280;52677;50.898;10.854;2024-01-16T07:15:33;97572.06;;;-2.58;100.00
65897;BME280;52677;50.898;10.854;2024-01-16T07:17:33;97575.41;;;-2.61;100.00
65897;BME280;52677;50.898;10.854;2024-01-16T07:19:33;97566.03;;;-2.55;100.00
65897;BME280;52677;50.898;10.854;2024-01-16T07:21:33;97577.47;;;-2.58;100.00
65897;BME280;52677;50.898;10.854;2024-01-16T07:23:34;97576.06;;;-2.64;100.00
65897;BME280;52677;50.898;10.854;2024-01-16T07:25:34;97574.75;;;-2.67;100.00
65897;BME280;52677;50.898;10.854;2024-01-16T07:27:35;97579.84;;;-2.65;100.00
65897;BME280;52677;50.898;10.854;2024-01-16T07:29:35;97589.75;;;-2.61;100.00
65897;BME280;52677;50.898;10.854;2024-01-16T07:31:39;97584.00;;;-2.59;100.00
65897;BME280;52677;50.898;10.854;2024-01-16T07:33:39;97592.31;;;-2.56;100.00
65897;BME280;52677;50.898;10.854;2024-01-16T07:35:39;97591.38;;;-2.51;100.00
65897;BME280;52677;50.898;10.854;2024-01-16T07:37:41;97593.78;;;-2.41;100.00
65897;BME280;52677;50.898;10.854;2024-01-16T07:39:41;97603.84;;;-2.33;100.00
65897;BME280;52677;50.898;10.854;2024-01-16T07:41:42;97599.72;;;-2.30;100.00
65897;BME280;52677;50.898;10.854;2024-01-16T07:43:42;97594.94;;;-2.24;100.00
65897;BME280;52677;50.898;10.854;2024-01-16T07:45:42;97603.41;;;-2.17;100.00
65897;BME280;52677;50.898;10.854;2024-01-16T07:47:43;97605.66;;;-2.02;100.00
65897;BME280;52677;50.898;10.854;2024-01-16T07:49:43;97598.66;;;-2.03;100.00
65897;BME280;52677;50.898;10.854;2024-01-16T07:51:43;97595.78;;;-1.98;100.00
65897;BME280;52677;50.898;10.854;2024-01-16T07:53:44;97600.09;;;-1.97;100.00
65897;BME280;52677;50.898;10.854;2024-01-16T07:55:44;97605.00;;;-1.99;100.00
65897;BME280;52677;50.898;10.854;2024-01-16T07:57:44;97597.84;;;-1.95;100.00
65897;BME280;52677;50.898;10.854;2024-01-16T07:59:45;97605.03;;;-1.90;100.00
65897;BME280;52677;50.898;10.854;2024-01-16T08:01:45;97602.63;;;-1.92;100.00
65897;BME280;52677;50.898;10.854;2024-01-16T08:03:46;97599.91;;;-1.92;100.00
65897;BME280;52677;50.898;10.854;2024-01-16T08:05:46;97602.97;;;-1.85;100.00
65897;BME280;52677;50.898;10.854;2024-01-16T08:07:46;97600.25;;;-1.85;100.00
65897;BME280;52677;50.898;10.854;2024-01-16T08:09:46;97604.53;;;-1.92;100.00
65897;BME280;52677;50.898;10.854;2024-01-16T08:11:47;97603.44;;;-1.91;100.00
65897;BME280;52677;50.898;10.854;2024-01-16T08:13:47;97608.38;;;-1.93;100.00
65897;BME280;52677;50.898;10.854;2024-01-16T08:15:48;97597.22;;;-1.92;100.00
65897;BME280;52677;50.898;10.854;2024-01-16T08:17:48;97601.50;;;-1.91;100.00
65897;BME280;52677;50.898;10.854;2024-01-16T08:19:48;97591.31;;;-1.94;100.00
65897;BME280;52677;50.898;10.854;2024-01-16T08:21:49;97601.03;;;-1.93;100.00
65897;BME280;52677;50.898;10.854;2024-01-16T08:23:49;97593.38;;;-1.91;100.00
65897;BME280;52677;50.898;10.854;2024-01-16T08:25:50;97590.38;;;-1.89;100.00
65897;BME280;52677;50.898;10.854;2024-01-16T08:27:51;97599.94;;;-1.83;100.00
65897;BME280;52677;50.898;10.854;2024-01-16T08:29:52;97600.44;;;-1.81;100.00
65897;BME280;52677;50.898;10.854;2024-01-16T08:31:52;97602.81;;;-1.80;100.00
65897;BME280;52677;50.898;10.854;2024-01-16T08:33:52;97606.00;;;-1.78;100.00
65897;BME280;52677;50.898;10.854;2024-01-16T08:35:56;97605.66;;;-1.76;100.00
65897;BME280;52677;50.898;10.854;2024-01-16T08:37:56;97595.81;;;-1.72;100.00
65897;BME280;52677;50.898;10.854;2024-01-16T08:39:56;97601.38;;;-1.68;100.00
65897;BME280;52677;50.898;10.854;2024-01-16T08:41:57;97593.41;;;-1.65;100.00
65897;BME280;52677;50.898;10.854;2024-01-16T08:43:57;97596.91;;;-1.56;100.00
65897;BME280;52677;50.898;10.854;2024-01-16T08:45:58;97593.88;;;-1.54;100.00
65897;BME280;52677;50.898;10.854;2024-01-16T08:47:58;97598.97;;;-1.53;100.00
65897;BME280;52677;50.898;10.854;2024-01-16T08:49:59;97602.47;;;-1.52;100.00
65897;BME280;52677;50.898;10.854;2024-01-16T08:52:00;97605.38;;;-1.49;100.00
65897;BME280;52677;50.898;10.854;2024-01-16T08:54:00;97608.69;;;-1.52;100.00
65897;BME280;52677;50.898;10.854;2024-01-16T08:56:00;97602.94;;;-1.50;100.00
65897;BME280;52677;50.898;10.854;2024-01-16T08:58:01;97605.50;;;-1.45;100.00
65897;BME280;52677;50.898;10.854;2024-01-16T09:00:01;97615.09;;;-1.39;100.00
65897;BME280;52677;50.898;10.854;2024-01-16T09:02:03;97617.00;;;-1.39;100.00
65897;BME280;52677;50.898;10.854;2024-01-16T09:04:03;97621.31;;;-1.30;100.00
65897;BME280;52677;50.898;10.854;2024-01-16T09:06:04;97612.38;;;-1.30;100.00
65897;BME280;52677;50.898;10.854;2024-01-16T09:08:04;97624.34;;;-1.31;100.00
65897;BME280;52677;50.898;10.854;2024-01-16T09:10:05;97617.00;;;-1.31;100.00
65897;BME280;52677;50.898;10.854;2024-01-16T09:12:05;97629.91;;;-1.28;100.00
65897;BME280;52677;50.898;10.854;2024-01-16T09:14:06;97631.84;;;-1.28;100.00
65897;BME280;52677;50.898;10.854;2024-01-16T09:16:06;97624.81;;;-1.29;100.00
65897;BME280;52677;50.898;10.854;2024-01-16T09:18:06;97631.03;;;-1.20;100.00
65897;BME280;52677;50.898;10.854;2024-01-16T09:20:07;97632.59;;;-1.10;100.00
65897;BME280;52677;50.898;10.854;2024-01-16T09:22:08;97629.75;;;-1.14;100.00
65897;BME280;52677;50.898;10.854;2024-01-16T09:24:08;97635.63;;;-1.03;100.00
65897;BME280;52677;50.898;10.854;2024-01-16T09:26:08;97633.25;;;-1.05;100.00
65897;BME280;52677;50.898;10.854;2024-01-16T09:28:09;97628.75;;;-1.01;100.00
65897;BME280;52677;50.898;10.854;2024-01-16T09:30:09;97632.41;;;-0.97;100.00
65897;BME280;52677;50.898;10.854;2024-01-16T09:32:10;97624.41;;;-0.93;100.00
65897;BME280;52677;50.898;10.854;2024-01-16T09:34:10;97629.34;;;-0.87;100.00
65897;BME280;52677;50.898;10.854;2024-01-16T09:36:13;97627.72;;;-0.79;100.00
65897;BME280;52677;50.898;10.854;2024-01-16T09:38:13;97638.28;;;-0.77;100.00
65897;BME280;52677;50.898;10.854;2024-01-16T09:40:13;97640.03;;;-0.73;100.00
65897;BME280;52677;50.898;10.854;2024-01-16T09:42:14;97650.22;;;-0.70;100.00
65897;BME280;52677;50.898;10.854;2024-01-16T09:44:16;97646.81;;;-0.58;100.00
65897;BME280;52677;50.898;10.854;2024-01-16T09:46:17;97647.13;;;-0.51;100.00
65897;BME280;52677;50.898;10.854;2024-01-16T09:48:20;97644.91;;;-0.49;100.00
65897;BME280;52677;50.898;10.854;2024-01-16T09:50:20;97645.53;;;-0.52;100.00
65897;BME280;52677;50.898;10.854;2024-01-16T09:52:21;97649.53;;;-0.49;100.00
65897;BME280;52677;50.898;10.854;2024-01-16T09:54:21;97661.03;;;-0.52;100.00
65897;BME280;52677;50.898;10.854;2024-01-16T09:56:22;97662.97;;;-0.53;100.00
65897;BME280;52677;50.898;10.854;2024-01-16T09:58:25;97664.75;;;-0.57;100.00
65897;BME280;52677;50.898;10.854;2024-01-16T10:00:27;97660.56;;;-0.54;100.00
65897;BME280;52677;50.898;10.854;2024-01-16T10:02:27;97653.38;;;-0.59;100.00
65897;BME280;52677;50.898;10.854;2024-01-16T10:04:27;97657.84;;;-0.54;100.00
65897;BME280;52677;50.898;10.854;2024-01-16T10:06:30;97653.50;;;-0.47;100.00
65897;BME280;52677;50.898;10.854;2024-01-16T10:08:32;97654.59;;;-0.39;100.00
65897;BME280;52677;50.898;10.854;2024-01-16T10:10:32;97653.00;;;-0.40;100.00
65897;BME280;52677;50.898;10.854;2024-01-16T10:12:33;97650.44;;;-0.37;100.00
65897;BME280;52677;50.898;10.854;2024-01-16T10:14:33;97647.25;;;-0.39;100.00
65897;BME280;52677;50.898;10.854;2024-01-16T10:19:08;97644.31;;;-0.34;100.00
65897;BME280;52677;50.898;10.854;2024-01-16T10:21:28;97642.56;;;-0.30;100.00
65897;BME280;52677;50.898;10.854;2024-01-16T10:23:32;97638.09;;;-0.34;100.00
65897;BME280;52677;50.898;10.854;2024-01-16T10:25:32;97637.00;;;-0.33;100.00